createdAt,value
2023-05-08T09:25:46.477Z,7.78
2023-05-08T09:28:16.347Z,7.85
2023-05-08T09:29:20.782Z,7.53
2023-05-08T09:30:22.176Z,8.32
2023-05-08T09:31:34.911Z,7.82
2023-05-08T09:32:38.441Z,8.60
2023-05-08T09:33:44.409Z,7.60
2023-05-08T09:34:52.443Z,8.57
2023-05-08T09:35:56.812Z,8.43
2023-05-08T09:37:07.421Z,8.10
2023-05-08T09:38:08.767Z,8.35
2023-05-08T09:39:14.119Z,7.70
2023-05-08T09:40:21.407Z,7.35
2023-05-08T09:41:24.071Z,7.55
2023-05-08T09:42:37.753Z,7.15
2023-05-08T09:43:39.455Z,7.45
2023-05-08T09:44:54.021Z,7.57
2023-05-08T09:45:55.552Z,7.18
2023-05-08T09:47:11.234Z,7.47
2023-05-08T09:48:12.610Z,8.25
2023-05-08T09:49:18.126Z,7.05
2023-05-08T09:50:19.611Z,7.07
2023-05-08T09:51:21.687Z,6.60
2023-05-08T09:52:24.045Z,5.85
2023-05-08T09:53:32.282Z,6.25
2023-05-08T09:54:34.793Z,4.70
2023-05-08T09:55:48.671Z,5.55
2023-05-08T09:56:50.939Z,5.20
2023-05-08T09:57:59.879Z,5.45
2023-05-08T09:59:03.586Z,4.95
2023-05-08T10:00:08.920Z,5.82
2023-05-08T10:01:31.500Z,5.25
2023-05-08T10:02:33.204Z,5.30
2023-05-08T10:03:48.471Z,6.25
2023-05-08T10:04:49.929Z,6.90
2023-05-08T10:05:51.551Z,7.15
2023-05-08T10:06:58.501Z,6.68
2023-05-08T10:08:17.843Z,6.32
2023-05-08T10:09:19.423Z,7.28
2023-05-08T10:10:28.527Z,7.05
2023-05-08T10:11:29.908Z,6.60
2023-05-08T10:12:32.206Z,6.57
2023-05-08T10:13:33.913Z,6.35
2023-05-08T10:14:35.344Z,6.65
2023-05-08T10:15:38.273Z,5.57
2023-05-08T10:16:44.016Z,5.40
2023-05-08T10:17:55.962Z,6.07
2023-05-08T10:19:02.344Z,5.82
2023-05-08T10:20:07.071Z,5.55
2023-05-08T10:21:09.046Z,5.88
2023-05-08T10:22:12.578Z,5.78
2023-05-08T10:23:19.016Z,6.03
2023-05-08T10:24:29.260Z,4.85
2023-05-08T10:25:34.002Z,5.35
2023-05-08T10:26:38.089Z,5.72
2023-05-08T10:27:55.196Z,5.15
2023-05-08T10:28:57.785Z,5.85
2023-05-08T10:30:04.185Z,6.20
2023-05-08T10:31:07.965Z,5.75
2023-05-08T10:32:10.592Z,5.25
2023-05-08T10:33:15.301Z,5.10
2023-05-08T10:34:20.725Z,5.05
2023-05-08T10:35:22.806Z,4.70
2023-05-08T11:27:37.844Z,6.05
2023-05-08T11:30:22.653Z,5.75
2023-05-08T11:31:24.371Z,4.32
2023-05-08T11:33:55.533Z,5.43
2023-05-08T11:34:57.353Z,5.22
2023-05-08T11:36:20.549Z,4.90
2023-05-08T11:39:07.922Z,4.18
2023-05-08T11:40:47.372Z,4.50
2023-05-08T11:43:24.265Z,5.25
2023-05-08T11:44:28.161Z,5.50
2023-05-08T11:45:30.812Z,5.30
2023-05-08T11:46:52.192Z,4.90
2023-05-08T11:48:00.971Z,5.63
2023-05-08T11:49:02.552Z,5.40
2023-05-08T11:50:04.727Z,5.45
2023-05-08T11:51:06.793Z,5.85
2023-05-08T11:52:08.238Z,5.03
2023-05-08T11:53:09.709Z,5.90
2023-05-08T11:54:20.971Z,5.43
2023-05-08T11:55:22.485Z,6.30
2023-05-08T11:56:24.636Z,5.90
2023-05-08T11:57:27.106Z,5.97
2023-05-08T11:58:28.663Z,6.40
2023-05-08T11:59:35.627Z,6.15
2023-05-08T12:00:41.132Z,6.60
2023-05-08T12:01:46.295Z,6.25
2023-05-08T12:02:50.098Z,6.15
2023-05-08T12:04:00.793Z,5.90
2023-05-08T12:05:03.132Z,8.20
2023-05-08T12:06:04.850Z,6.80
2023-05-08T12:07:06.287Z,6.38
2023-05-08T12:08:12.081Z,7.25
2023-05-08T12:09:18.350Z,7.30
2023-05-08T12:10:20.082Z,6.97
2023-05-08T12:11:27.741Z,6.95
2023-05-08T12:12:42.936Z,9.07
2023-05-08T12:13:51.562Z,8.30
2023-05-08T12:14:53.090Z,7.53
2023-05-08T12:15:59.072Z,8.38
2023-05-08T12:17:02.493Z,8.45
2023-05-08T12:18:04.221Z,7.45
2023-05-08T12:19:13.588Z,8.85
2023-05-08T12:20:19.340Z,8.30
2023-05-08T12:21:21.343Z,8.43
2023-05-08T12:22:22.764Z,8.63
2023-05-08T12:23:30.852Z,8.23
2023-05-08T12:24:32.379Z,8.95
2023-05-08T12:25:34.052Z,9.18
2023-05-08T12:26:37.583Z,8.25
2023-05-08T12:27:39.582Z,7.00
2023-05-08T12:28:44.500Z,7.05
2023-05-08T12:29:46.564Z,6.88
2023-05-08T12:30:49.620Z,7.53
2023-05-08T12:31:51.593Z,7.97
2023-05-08T12:32:53.447Z,7.50
2023-05-08T12:33:55.934Z,7.57
2023-05-08T12:34:57.637Z,8.15
2023-05-08T12:35:59.223Z,7.05
2023-05-08T12:37:04.634Z,8.27
2023-05-08T12:38:07.747Z,8.25
2023-05-08T12:39:13.852Z,53.47
2023-05-08T12:40:26.875Z,21.90
2023-05-08T12:41:28.452Z,9.40
2023-05-08T12:42:48.282Z,8.38
2023-05-08T12:43:49.758Z,8.02
2023-05-08T12:44:52.550Z,7.68
2023-05-08T12:45:54.168Z,6.85
2023-05-08T12:46:56.879Z,7.20
2023-05-08T12:48:03.647Z,7.05
2023-05-08T12:49:07.822Z,7.45
2023-05-08T12:50:10.170Z,7.05
2023-05-08T12:51:12.216Z,7.25
2023-05-08T12:52:13.890Z,7.70
2023-05-08T12:53:17.468Z,8.43
2023-05-08T12:54:18.943Z,8.20
2023-05-08T12:55:28.649Z,10.38
2023-05-08T12:56:30.234Z,9.90
2023-05-08T12:57:31.613Z,10.80
2023-05-08T12:58:34.473Z,10.93
2023-05-08T12:59:36.020Z,10.90
2023-05-08T13:00:37.373Z,10.52
2023-05-08T13:01:38.883Z,10.68
2023-05-08T13:02:49.022Z,11.98
2023-05-08T13:04:01.711Z,11.60
2023-05-08T13:05:05.800Z,10.20
2023-05-08T13:06:18.718Z,10.85
2023-05-08T13:07:20.107Z,10.60
2023-05-08T13:08:38.713Z,11.15
2023-05-08T13:09:55.267Z,11.02
2023-05-08T13:10:56.664Z,12.18
2023-05-08T13:11:58.921Z,11.55
2023-05-08T13:13:00.349Z,12.02
2023-05-08T13:14:01.834Z,11.68
2023-05-08T13:15:04.774Z,11.50
2023-05-08T13:16:07.751Z,11.43
2023-05-08T13:17:09.313Z,11.85
2023-05-08T13:18:11.083Z,11.48
2023-05-08T13:19:12.539Z,10.93
2023-05-08T13:20:14.573Z,10.32
2023-05-08T13:21:16.196Z,10.98
2023-05-08T13:22:17.717Z,10.98
2023-05-08T13:23:19.401Z,12.73
2023-05-08T13:24:21.297Z,11.07
2023-05-08T13:25:22.661Z,10.55
2023-05-08T13:26:25.858Z,10.85
2023-05-08T13:27:27.385Z,10.98
2023-05-08T13:28:28.943Z,11.50
2023-05-08T13:29:30.701Z,10.88
2023-05-08T13:30:32.212Z,11.70
2023-05-08T13:31:34.165Z,9.52
2023-05-08T13:32:35.714Z,11.85
2023-05-08T13:33:38.281Z,10.88
2023-05-08T13:34:47.279Z,11.63
2023-05-08T13:35:50.931Z,10.75
2023-05-08T13:36:52.859Z,11.55
2023-05-08T13:37:55.465Z,11.43
2023-05-08T13:38:57.454Z,10.88
2023-05-08T13:39:58.766Z,11.15
2023-05-08T13:41:00.360Z,11.95
2023-05-08T13:42:01.772Z,10.98
2023-05-08T13:43:03.421Z,11.20
2023-05-08T13:44:04.924Z,11.48
2023-05-08T13:45:07.787Z,11.63
2023-05-08T13:46:09.292Z,45.28
2023-05-08T13:47:11.003Z,36.83
2023-05-08T13:48:12.610Z,19.67
2023-05-08T13:49:14.281Z,21.58
2023-05-08T13:50:18.494Z,17.92
2023-05-08T13:51:27.394Z,11.70
2023-05-08T13:52:30.282Z,12.10
2023-05-08T13:53:31.682Z,11.73
2023-05-08T13:54:33.151Z,12.30
2023-05-08T13:55:36.169Z,14.05
2023-05-08T13:56:37.538Z,31.40
2023-05-08T13:57:39.547Z,15.45
2023-05-08T13:58:41.313Z,21.25
2023-05-08T13:59:42.966Z,32.55
2023-05-08T14:00:45.476Z,18.90
2023-05-08T14:01:46.945Z,12.90
2023-05-08T14:02:50.005Z,11.77
2023-05-08T14:03:53.565Z,12.95
2023-05-08T14:04:55.175Z,12.85
2023-05-08T14:05:56.683Z,11.60
2023-05-08T14:06:58.482Z,13.30
2023-05-08T14:07:59.882Z,13.48
2023-05-08T14:09:01.334Z,13.90
2023-05-08T14:10:03.064Z,13.00
2023-05-08T14:11:04.458Z,11.77
2023-05-08T14:12:06.261Z,12.55
2023-05-08T14:13:07.797Z,12.25
2023-05-08T14:14:09.363Z,12.30
2023-05-08T14:15:12.093Z,11.23
2023-05-08T14:16:16.108Z,11.95
2023-05-08T17:23:48.240Z,19.23
2023-05-08T17:24:49.651Z,19.75
2023-05-08T17:25:58.208Z,19.65
2023-05-08T17:26:59.824Z,20.77
2023-05-08T17:28:01.997Z,19.98
2023-05-08T17:29:03.565Z,20.42
2023-05-08T17:30:06.619Z,19.75
2023-05-08T17:31:08.014Z,18.27
2023-05-08T17:32:09.538Z,17.13
2023-05-08T17:33:11.060Z,18.13
2023-05-08T17:36:20.410Z,17.33
